createdAt,value
2022-09-02T00:03:09.746Z,3.40
2022-09-02T00:21:49.210Z,4.00
2022-09-02T00:59:06.561Z,3.50
2022-09-02T01:17:44.628Z,3.00
2022-09-02T01:36:21.891Z,2.30
2022-09-02T01:55:01.844Z,3.90
2022-09-02T02:13:39.920Z,3.30
2022-09-02T02:32:19.367Z,3.10
2022-09-02T02:50:58.854Z,4.30
2022-09-02T03:28:15.880Z,4.80
2022-09-02T03:46:54.304Z,4.10
2022-09-02T04:24:13.429Z,3.40
2022-09-02T04:42:52.702Z,5.30
2022-09-02T05:01:32.128Z,10.90
2022-09-02T05:38:53.089Z,5.60
2022-09-02T05:57:34.425Z,5.70
2022-09-02T06:16:16.276Z,8.70
2022-09-02T06:53:38.815Z,3.80
2022-09-02T07:12:22.331Z,5.60
2022-09-02T08:08:27.537Z,2.20
2022-09-02T08:27:09.076Z,1.50
2022-09-02T08:45:51.109Z,2.00
2022-09-02T09:23:20.007Z,2.30
2022-09-02T09:41:55.336Z,1.50
2022-09-02T10:00:41.148Z,1.00
2022-09-02T10:19:28.877Z,0.50
2022-09-02T10:57:06.966Z,0.40
2022-09-02T11:15:52.233Z,0.60
2022-09-02T11:34:39.968Z,0.40
2022-09-02T11:53:25.890Z,0.20
2022-09-02T12:12:07.224Z,0.50
2022-09-02T12:30:49.671Z,0.50
2022-09-02T13:08:18.816Z,0.40
2022-09-02T13:26:59.423Z,0.60
2022-09-02T13:45:43.596Z,0.30
2022-09-02T14:04:23.997Z,0.40
2022-09-02T14:23:10.555Z,0.30
2022-09-02T14:41:51.529Z,0.50
2022-09-02T15:00:34.593Z,0.50
2022-09-02T15:19:10.597Z,0.70
2022-09-02T15:56:27.563Z,0.70
2022-09-02T16:15:04.823Z,0.80
2022-09-02T16:33:39.040Z,0.80
2022-09-02T17:10:49.705Z,0.70
2022-09-02T17:29:31.883Z,1.00
2022-09-02T17:47:43.721Z,1.10
2022-09-02T18:06:18.741Z,2.10
2022-09-02T18:24:56.660Z,0.80
2022-09-02T18:43:31.671Z,1.40
2022-09-02T19:02:12.787Z,1.30
2022-09-02T19:20:48.273Z,1.50
2022-09-02T19:58:03.643Z,1.20
2022-09-02T20:16:41.455Z,1.20
2022-09-02T20:35:19.675Z,1.40
2022-09-02T20:54:00.851Z,1.00
2022-09-02T21:12:37.905Z,2.50
2022-09-02T21:31:16.383Z,1.90
2022-09-02T21:49:56.984Z,2.00
2022-09-02T22:08:34.502Z,1.00
2022-09-02T22:27:14.511Z,1.40
2022-09-02T22:45:52.284Z,2.10
2022-09-02T23:04:35.114Z,2.40
2022-09-02T23:23:08.593Z,1.60
2022-09-02T23:41:47.063Z,2.20
